Time;durP1;ratioP1;P1;durP2;ratioP2;P2;SDS_P1;SDS_P2;PMS_P1;PMS_P2;Temp;Humidity;BMP_temperature;BMP_pressure;BME280_temperature;BME280_humidity;BME280_pressure;Samples;Min_cycle;Max_cycle;Signal;HPM_P1;HPM_P2
2022/03/15 03:30:37;;;;;;;35.50;20.80;;;;;;;1.49;55.14;101523.19;130394;1267;96653;-78
2022/03/15 03:33:43;;;;;;;42.60;22.90;;;;;;;1.55;55.23;101526.45;130402;1267;96640;-77
2022/03/15 03:36:50;;;;;;;41.10;23.20;;;;;;;1.59;55.28;101519.80;130336;1267;96609;-77
2022/03/15 03:39:55;;;;;;;39.60;21.90;;;;;;;1.61;55.17;101521.46;130392;1267;96646;-78
2022/03/15 03:43:00;;;;;;;41.00;22.70;;;;;;;1.60;55.15;101513.27;130423;1267;96633;-75
2022/03/15 03:46:08;;;;;;;40.20;23.20;;;;;;;1.59;55.19;101507.36;130425;1266;98334;-73
2022/03/15 03:49:16;;;;;;;44.90;22.50;;;;;;;1.58;55.42;101495.98;130386;1267;96728;-75
2022/03/15 03:52:21;;;;;;;43.20;24.00;;;;;;;1.61;55.45;101492.54;130427;1266;96642;-73
2022/03/15 03:55:27;;;;;;;40.00;22.50;;;;;;;1.65;55.48;101495.34;130445;1267;97428;-78
2022/03/15 03:58:33;;;;;;;41.10;22.10;;;;;;;1.72;55.49;101498.36;130351;1267;96704;-76
2022/03/15 04:01:38;;;;;;;40.30;22.50;;;;;;;1.82;55.50;101495.30;130394;1267;96709;-76
2022/03/15 04:04:45;;;;;;;41.20;22.70;;;;;;;1.91;55.55;101492.30;130362;1267;96714;-75
2022/03/15 04:07:50;;;;;;;35.10;20.90;;;;;;;1.96;55.66;101492.23;130338;1266;96685;-79
2022/03/15 04:10:56;;;;;;;39.50;22.10;;;;;;;2.03;55.65;101489.30;130439;1267;96633;-77
2022/03/15 04:14:03;;;;;;;37.70;22.00;;;;;;;2.10;55.68;101493.05;130481;1267;97691;-74
2022/03/15 04:17:10;;;;;;;40.20;22.60;;;;;;;2.17;55.79;101495.02;130370;1268;96620;-74
2022/03/15 04:20:16;;;;;;;36.80;22.30;;;;;;;2.25;55.84;101494.84;130282;1268;97815;-76
2022/03/15 04:23:22;;;;;;;43.50;23.60;;;;;;;2.30;55.91;101496.85;130361;1268;97285;-76
2022/03/15 04:26:28;;;;;;;41.60;22.00;;;;;;;2.36;55.80;101501.38;130401;1268;96618;-77
2022/03/15 04:29:33;;;;;;;38.30;23.10;;;;;;;2.40;55.88;101506.98;130322;1268;96636;-76
2022/03/15 04:32:40;;;;;;;39.40;23.40;;;;;;;2.44;55.87;101509.59;130342;1268;96636;-78
2022/03/15 04:35:45;;;;;;;43.30;24.40;;;;;;;2.47;55.80;101510.69;130288;1268;96618;-77
2022/03/15 04:38:51;;;;;;;169.20;74.00;;;;;;;2.47;55.88;101509.30;130302;1269;96634;-75
2022/03/15 04:41:56;;;;;;;64.70;34.70;;;;;;;2.46;55.95;101517.05;130315;1268;96637;-76
2022/03/15 04:45:02;;;;;;;49.40;27.10;;;;;;;2.44;55.83;101516.42;130233;1268;96625;-76
2022/03/15 04:48:09;;;;;;;78.40;35.90;;;;;;;2.44;55.91;101519.98;130259;1268;96622;-76
2022/03/15 04:51:14;;;;;;;58.80;27.90;;;;;;;2.42;55.91;101521.66;130295;1270;97704;-74
2022/03/15 04:54:19;;;;;;;54.50;27.80;;;;;;;2.38;56.01;101510.57;130298;1268;97703;-76
2022/03/15 04:57:25;;;;;;;47.00;25.40;;;;;;;2.34;55.95;101507.38;130309;1268;97700;-75
2022/03/15 05:00:30;;;;;;;53.20;29.60;;;;;;;2.29;55.97;101509.39;130301;1268;96624;-76
2022/03/15 05:03:36;;;;;;;51.90;27.20;;;;;;;2.25;56.03;101513.27;130306;1268;96652;-76
2022/03/15 05:06:42;;;;;;;41.60;24.10;;;;;;;2.22;56.07;101511.27;130255;1268;96693;-75
2022/03/15 05:13:11;;;;;;;46.50;25.20;;;;;;;2.18;56.10;101516.39;130300;1268;97815;-76
2022/03/15 05:16:19;;;;;;;43.90;25.10;;;;;;;2.17;56.24;101520.48;130300;1268;97376;-73
2022/03/15 05:19:24;;;;;;;41.20;23.80;;;;;;;2.16;56.35;101521.38;130304;1268;97723;-72
2022/03/15 05:22:30;;;;;;;41.90;24.20;;;;;;;2.16;56.37;101518.92;130335;1268;96712;-74
2022/03/15 05:25:35;;;;;;;40.80;23.30;;;;;;;2.18;56.35;101521.86;130245;1268;96730;-75
2022/03/15 05:28:41;;;;;;;40.50;23.70;;;;;;;2.17;56.41;101519.60;130285;1268;96628;-75
2022/03/15 05:31:48;;;;;;;57.90;29.30;;;;;;;2.14;56.55;101511.63;130267;1268;96735;-77
2022/03/15 05:34:53;;;;;;;47.30;25.00;;;;;;;2.16;56.69;101505.42;130285;1268;96612;-78
2022/03/15 05:37:59;;;;;;;42.60;23.30;;;;;;;2.18;56.78;101506.21;130426;1268;96706;-76
2022/03/15 05:41:06;;;;;;;49.70;26.40;;;;;;;2.19;56.83;101511.42;130326;1268;96629;-77
2022/03/15 05:44:12;;;;;;;44.40;23.90;;;;;;;2.21;56.96;101508.70;130272;1268;96782;-75
2022/03/15 05:47:18;;;;;;;41.90;22.80;;;;;;;2.26;57.05;101506.39;130318;1268;97294;-75
2022/03/15 05:50:24;;;;;;;37.90;21.90;;;;;;;2.31;57.18;101502.98;130308;1268;96673;-76
2022/03/15 05:53:29;;;;;;;39.40;22.80;;;;;;;2.37;57.19;101505.90;130318;1268;97680;-76
2022/03/15 05:56:35;;;;;;;39.00;23.20;;;;;;;2.42;57.23;101503.53;130321;1268;96621;-75
2022/03/15 05:59:40;;;;;;;39.70;22.90;;;;;;;2.47;57.38;101508.21;130271;1270;96740;-75
2022/03/15 06:02:45;;;;;;;34.80;20.50;;;;;;;2.53;57.55;101506.72;130260;1270;97112;-75
2022/03/15 06:05:52;;;;;;;38.10;22.00;;;;;;;2.62;57.53;101512.46;130282;1268;97705;-75
2022/03/15 06:08:58;;;;;;;37.80;22.20;;;;;;;2.69;57.61;101510.38;130398;1268;97722;-76
2022/03/15 06:12:04;;;;;;;39.10;22.40;;;;;;;2.75;57.69;101515.70;130360;1269;97805;-76
2022/03/15 06:15:11;;;;;;;37.90;21.80;;;;;;;2.85;57.93;101515.08;130338;1268;97481;-75
2022/03/15 06:18:16;;;;;;;36.60;21.20;;;;;;;2.96;58.14;101520.35;130276;1269;96719;-74
2022/03/15 06:21:22;;;;;;;47.80;25.60;;;;;;;3.07;58.33;101523.70;130261;1268;96629;-74
2022/03/15 06:24:28;;;;;;;37.80;21.40;;;;;;;3.19;58.60;101524.17;130302;1268;96732;-75
2022/03/15 06:27:34;;;;;;;183.90;61.90;;;;;;;3.32;58.80;101519.17;130393;1268;96650;-76
2022/03/15 06:30:41;;;;;;;66.50;29.90;;;;;;;3.45;58.92;101519.56;130263;1269;96612;-80
2022/03/15 06:33:49;;;;;;;245.80;89.50;;;;;;;3.58;59.20;101513.48;130323;1269;97299;-77
2022/03/15 06:36:54;;;;;;;86.20;39.70;;;;;;;3.74;59.45;101509.02;130272;1268;119257;-79
2022/03/15 06:39:59;;;;;;;288.50;122.70;;;;;;;3.93;59.55;101512.92;130399;1268;97428;-76
2022/03/15 06:43:06;;;;;;;225.70;98.50;;;;;;;4.16;59.79;101512.27;130336;1268;97443;-73
2022/03/15 06:46:11;;;;;;;84.40;42.10;;;;;;;4.40;59.92;101517.52;130279;1267;96647;-79
2022/03/15 06:49:17;;;;;;;46.90;26.60;;;;;;;4.64;60.13;101519.55;130265;1268;96934;-78
2022/03/15 06:52:22;;;;;;;55.90;29.10;;;;;;;4.86;60.04;101522.60;130650;1268;96722;-79
2022/03/15 06:55:28;;;;;;;156.20;80.00;;;;;;;5.03;60.02;101526.60;130344;1268;97034;-79
2022/03/15 06:58:34;;;;;;;62.60;32.30;;;;;;;5.17;60.14;101529.50;130496;1268;96709;-79
2022/03/15 07:01:40;;;;;;;43.80;27.70;;;;;;;5.29;60.29;101534.48;130543;1268;97088;-73
2022/03/15 07:04:45;;;;;;;36.50;24.70;;;;;;;5.42;60.33;101532.14;130363;1269;97683;-75
2022/03/15 07:07:50;;;;;;;27.40;18.00;;;;;;;5.53;60.58;101535.59;130396;1268;96727;-74
2022/03/15 07:10:56;;;;;;;29.20;19.50;;;;;;;5.65;60.73;101530.48;130450;1268;96623;-74
2022/03/15 07:14:04;;;;;;;23.30;16.00;;;;;;;5.81;60.90;101526.55;130410;1268;96614;-74
2022/03/15 07:17:09;;;;;;;26.90;18.00;;;;;;;6.00;61.27;101526.11;130311;1268;97263;-75
2022/03/15 07:20:15;;;;;;;22.60;15.40;;;;;;;6.19;60.99;101529.22;130297;1268;96729;-75
2022/03/15 07:23:21;;;;;;;23.70;16.10;;;;;;;6.38;61.34;101529.30;130308;1268;96632;-74
2022/03/15 07:26:26;;;;;;;26.70;16.80;;;;;;;6.55;61.48;101530.71;130258;1268;97402;-74
2022/03/15 07:29:31;;;;;;;22.20;14.70;;;;;;;6.67;61.26;101538.43;130459;1268;96609;-74
2022/03/15 07:32:37;;;;;;;26.00;15.70;;;;;;;6.78;61.35;101542.17;130497;1268;97714;-73
2022/03/15 07:35:42;;;;;;;35.40;21.60;;;;;;;6.84;61.38;101541.98;130682;1268;96700;-77
2022/03/15 07:38:48;;;;;;;29.40;18.20;;;;;;;6.92;61.28;101540.45;130517;1268;96718;-74
2022/03/15 07:41:54;;;;;;;27.70;17.10;;;;;;;6.97;61.12;101536.21;130421;1267;97663;-75
2022/03/15 07:45:00;;;;;;;33.80;22.20;;;;;;;7.03;61.04;101535.15;130515;1268;96610;-75
2022/03/15 07:48:06;;;;;;;29.90;18.50;;;;;;;7.08;61.39;101545.77;130407;1268;96608;-73
2022/03/15 07:51:12;;;;;;;67.20;36.90;;;;;;;7.11;61.67;101548.23;130516;1267;97749;-75
2022/03/15 07:54:18;;;;;;;62.30;25.80;;;;;;;7.18;61.53;101546.36;130731;1268;96737;-74
2022/03/15 07:57:26;;;;;;;49.30;26.10;;;;;;;7.28;61.29;101553.84;130464;1268;96696;-71
2022/03/15 08:00:32;;;;;;;102.20;48.20;;;;;;;7.43;61.19;101555.73;130473;1267;96634;-77
2022/03/15 08:03:37;;;;;;;152.70;64.40;;;;;;;7.55;61.10;101557.55;130489;1267;97436;-70
2022/03/15 08:06:43;;;;;;;440.80;180.90;;;;;;;7.70;60.85;101556.77;130430;1266;96634;-72
2022/03/15 08:09:49;;;;;;;404.90;143.10;;;;;;;7.85;60.93;101548.84;130546;1267;97300;-68
2022/03/15 08:12:54;;;;;;;185.50;68.00;;;;;;;8.01;60.72;101550.45;130401;1267;97687;-70
2022/03/15 08:16:02;;;;;;;72.50;34.40;;;;;;;8.19;60.74;101544.45;130405;1267;97049;-73
2022/03/15 08:19:08;;;;;;;65.10;31.50;;;;;;;8.34;60.76;101540.89;130380;1268;96686;-73
2022/03/15 08:22:13;;;;;;;197.40;73.90;;;;;;;8.48;60.74;101541.70;130588;1268;96705;-77
2022/03/15 08:25:19;;;;;;;164.60;63.70;;;;;;;8.59;60.56;101537.02;130554;1268;96722;-74
2022/03/15 08:28:26;;;;;;;117.10;47.20;;;;;;;8.71;60.83;101542.56;131577;1267;97274;-74
2022/03/15 08:31:32;;;;;;;215.60;77.90;;;;;;;8.80;60.60;101542.11;130713;1268;96684;-72
2022/03/15 08:34:37;;;;;;;244.20;88.20;;;;;;;8.89;60.73;101545.59;130626;1268;97383;-72
2022/03/15 08:37:50;;;;;;;374.70;133.70;;;;;;;8.94;60.83;101544.66;130448;1268;97513;-73
2022/03/15 08:40:55;;;;;;;278.30;95.70;;;;;;;8.97;60.98;101541.61;130519;1268;96639;-72
2022/03/15 08:44:02;;;;;;;523.30;195.80;;;;;;;9.04;61.02;101535.61;130503;1268;97047;-72
2022/03/15 08:47:08;;;;;;;377.00;135.40;;;;;;;9.09;60.93;101537.57;130531;1268;96866;-72
2022/03/15 08:50:13;;;;;;;428.50;159.20;;;;;;;9.14;60.85;101528.71;130587;1268;96610;-74
2022/03/15 08:53:19;;;;;;;100.10;42.50;;;;;;;9.11;60.65;101524.08;130386;1268;96640;-73
2022/03/15 08:56:25;;;;;;;269.60;105.90;;;;;;;9.10;60.69;101525.05;130543;1266;97704;-73
2022/03/15 08:59:30;;;;;;;136.00;59.50;;;;;;;9.10;60.65;101520.99;130662;1268;97389;-73
2022/03/15 09:02:35;;;;;;;431.90;211.20;;;;;;;9.10;60.76;101519.71;130640;1268;96679;-72
2022/03/15 09:05:41;;;;;;;168.10;82.80;;;;;;;9.15;60.53;101524.54;130512;1268;96610;-72
2022/03/15 09:08:48;;;;;;;121.50;59.90;;;;;;;9.19;60.59;101530.30;130456;1268;96651;-68
2022/03/15 09:11:53;;;;;;;37.60;23.70;;;;;;;9.22;60.61;101526.34;130531;1268;96671;-74
2022/03/15 09:14:59;;;;;;;50.40;30.10;;;;;;;9.30;60.62;101526.27;130400;1267;96690;-74
2022/03/15 09:18:05;;;;;;;230.20;112.90;;;;;;;9.49;60.64;101525.89;130646;1267;97723;-70
2022/03/15 09:21:12;;;;;;;106.00;55.20;;;;;;;9.67;60.51;101530.27;130251;1267;96695;-73
2022/03/15 09:24:18;;;;;;;78.60;44.40;;;;;;;9.75;60.37;101528.72;130134;1268;97710;-73
2022/03/15 09:27:23;;;;;;;35.60;22.60;;;;;;;9.79;60.21;101524.14;130340;1267;97192;-71
2022/03/15 09:30:30;;;;;;;27.60;20.40;;;;;;;9.83;60.29;101519.80;130308;1268;96641;-73
2022/03/15 09:33:36;;;;;;;26.30;19.80;;;;;;;9.88;60.20;101520.12;130321;1268;96746;-73
2022/03/15 09:36:42;;;;;;;28.50;20.30;;;;;;;9.97;60.28;101516.61;130338;1268;97338;-71
2022/03/15 09:39:51;;;;;;;24.80;18.50;;;;;;;10.08;60.18;101512.70;130208;1267;96608;-70
2022/03/15 09:43:00;;;;;;;26.40;19.80;;;;;;;10.13;60.09;101511.62;130247;1267;96636;-72
2022/03/15 09:46:08;;;;;;;22.50;17.10;;;;;;;10.24;60.23;101511.81;130384;1267;96689;-72
2022/03/15 09:49:16;;;;;;;25.20;18.60;;;;;;;10.39;60.21;101512.27;130389;1267;96636;-75
2022/03/15 09:52:22;;;;;;;27.60;20.40;;;;;;;10.50;59.68;101512.48;130359;1266;96610;-71
2022/03/15 09:55:29;;;;;;;28.10;20.60;;;;;;;10.49;59.61;101511.54;130262;1267;97803;-72
2022/03/15 09:58:34;;;;;;;26.80;19.80;;;;;;;10.54;59.48;101507.93;130353;1267;97435;-74
2022/03/15 10:01:41;;;;;;;25.80;18.80;;;;;;;10.65;59.84;101501.92;130321;1267;97302;-74
2022/03/15 10:04:51;;;;;;;29.30;20.30;;;;;;;10.72;59.36;101502.20;130349;1267;96644;-73
2022/03/15 10:07:56;;;;;;;25.50;19.50;;;;;;;10.53;59.32;101502.13;130334;1267;97799;-71
2022/03/15 10:11:02;;;;;;;30.60;21.60;;;;;;;10.25;59.88;101498.08;130284;1267;97416;-77
2022/03/15 10:14:08;;;;;;;33.00;23.20;;;;;;;10.23;60.04;101487.52;131381;1267;96614;-73
2022/03/15 10:17:16;;;;;;;27.50;20.20;;;;;;;10.29;59.45;101490.33;130546;1268;97694;-73
2022/03/15 10:20:28;;;;;;;25.80;19.80;;;;;;;10.16;59.76;101486.98;130558;1266;96616;-72
2022/03/15 10:23:39;;;;;;;26.90;19.50;;;;;;;10.15;59.73;101477.48;130648;1267;97364;-74
2022/03/15 10:26:46;;;;;;;25.70;19.00;;;;;;;10.25;60.06;101480.08;130421;1267;97660;-71
2022/03/15 10:29:53;;;;;;;26.50;19.00;;;;;;;10.38;59.94;101477.13;130186;1267;97834;-71
2022/03/15 10:32:59;;;;;;;24.30;19.10;;;;;;;10.51;59.36;101476.85;130397;1267;96663;-71
2022/03/15 10:36:16;;;;;;;26.70;19.30;;;;;;;10.66;59.44;101469.57;130533;1267;97720;-71
2022/03/15 10:39:22;;;;;;;23.30;18.00;;;;;;;10.88;59.38;101463.33;130375;1267;96599;-71
2022/03/15 10:42:28;;;;;;;26.50;18.70;;;;;;;11.01;59.32;101461.75;130378;1267;97939;-74
2022/03/15 10:45:35;;;;;;;24.10;18.10;;;;;;;11.11;59.27;101456.27;130352;1267;96614;-73
2022/03/15 10:48:42;;;;;;;23.70;18.10;;;;;;;11.35;59.34;101442.77;130375;1266;97270;-73
2022/03/15 10:51:50;;;;;;;21.90;17.20;;;;;;;11.58;59.02;101436.48;130327;1267;97286;-74
2022/03/15 10:54:55;;;;;;;22.10;16.70;;;;;;;11.72;58.59;101434.45;130369;1267;96641;-73
2022/03/15 10:58:05;;;;;;;25.40;18.10;;;;;;;11.74;57.61;101438.70;130313;1267;96602;-76
2022/03/15 11:01:12;;;;;;;20.60;16.40;;;;;;;11.71;58.18;101433.96;130366;1267;97879;-74
2022/03/15 11:04:19;;;;;;;19.00;14.20;;;;;;;11.77;57.96;101436.52;130337;1267;97689;-74
2022/03/15 11:07:24;;;;;;;18.90;15.20;;;;;;;11.78;58.16;101435.84;130337;1267;97831;-72
2022/03/15 11:10:34;;;;;;;223.20;76.80;;;;;;;11.72;57.50;101434.06;130347;1267;96883;-73
2022/03/15 11:13:39;;;;;;;298.60;115.70;;;;;;;11.65;58.09;101427.73;130428;1267;96634;-73
2022/03/15 11:16:46;;;;;;;63.00;34.40;;;;;;;11.78;58.32;101426.98;130356;1266;97804;-73
2022/03/15 11:19:54;;;;;;;26.30;20.10;;;;;;;11.86;57.03;101426.66;130376;1266;96628;-75
2022/03/15 11:23:02;;;;;;;27.00;19.00;;;;;;;11.64;57.14;101425.67;130411;1267;97825;-78
2022/03/15 11:26:09;;;;;;;40.60;28.10;;;;;;;11.51;57.14;101431.08;130594;1267;96663;-69
2022/03/15 11:29:23;;;;;;;21.20;17.00;;;;;;;11.30;56.89;101426.96;130422;1267;96671;-70
2022/03/15 11:32:29;;;;;;;22.00;16.60;;;;;;;11.10;57.79;101424.38;130204;1268;96695;-70
2022/03/15 11:35:36;;;;;;;21.50;16.90;;;;;;;11.05;57.73;101421.73;130241;1267;96622;-70
2022/03/15 11:38:44;;;;;;;20.80;17.10;;;;;;;11.03;57.78;101422.82;130503;1268;97698;-71
2022/03/15 11:41:50;;;;;;;75.40;38.00;;;;;;;10.85;57.61;101421.06;130203;1267;96663;-71
2022/03/15 11:45:03;;;;;;;31.20;20.40;;;;;;;10.76;58.12;101416.80;130141;1267;97691;-71
2022/03/15 11:48:10;;;;;;;;;;;;;;;10.76;58.15;101410.73;130264;1267;96611;-70
2022/03/15 11:51:27;;;;;;;111.10;63.90;;;;;;;10.82;58.33;101405.83;130274;1267;97350;-70
2022/03/15 11:54:45;;;;;;;35.80;23.40;;;;;;;10.85;58.16;101405.36;130345;1267;96664;-71
2022/03/15 11:57:59;;;;;;;22.20;17.60;;;;;;;10.85;58.08;101397.70;130335;1267;96630;-78
2022/03/15 12:01:12;;;;;;;20.60;16.40;;;;;;;10.92;58.19;101394.84;130399;1267;97801;-72
2022/03/15 12:04:23;;;;;;;21.70;15.70;;;;;;;10.99;57.91;101388.16;130644;1267;96747;-72
2022/03/15 12:07:46;;;;;;;21.10;15.50;;;;;;;10.96;58.12;101384.70;130399;1267;96677;-72
2022/03/15 12:10:57;;;;;;;18.40;14.70;;;;;;;10.97;58.34;101378.77;130314;1267;97424;-71
2022/03/15 12:14:09;;;;;;;17.70;13.40;;;;;;;11.04;58.43;101377.13;130341;1267;96658;-73
2022/03/15 12:17:15;;;;;;;18.30;13.70;;;;;;;11.18;58.22;101374.88;130522;1267;96639;-71
2022/03/15 12:20:21;;;;;;;17.00;13.70;;;;;;;11.29;58.06;101366.98;130347;1267;96687;-71
2022/03/15 12:23:27;;;;;;;16.90;13.50;;;;;;;11.31;57.69;101365.73;130555;1267;97270;-76
2022/03/15 12:26:35;;;;;;;19.10;13.50;;;;;;;11.25;57.54;101364.27;130380;1266;97328;-77
2022/03/15 12:29:50;;;;;;;21.10;15.10;;;;;;;11.26;57.83;101366.56;130405;1267;97681;-74
2022/03/15 12:32:58;;;;;;;16.80;13.10;;;;;;;11.33;57.80;101363.09;130462;1266;96699;-73
2022/03/15 12:36:06;;;;;;;17.40;13.40;;;;;;;11.36;57.72;101361.35;130369;1267;96743;-76
2022/03/15 12:39:14;;;;;;;15.50;12.40;;;;;;;11.44;57.65;101353.58;130399;1267;97844;-75
2022/03/15 12:42:22;;;;;;;15.30;12.60;;;;;;;11.44;57.41;101351.64;130491;1268;96657;-76
2022/03/15 12:45:29;;;;;;;16.90;12.30;;;;;;;11.37;57.39;101349.17;130359;1268;97261;-76
2022/03/15 12:48:37;;;;;;;16.80;12.60;;;;;;;11.36;57.64;101341.80;130554;1268;96626;-75
2022/03/15 12:51:45;;;;;;;22.90;14.80;;;;;;;11.42;57.84;101335.95;130480;1268;96628;-75
2022/03/15 12:55:00;;;;;;;17.50;13.20;;;;;;;11.51;57.64;101332.15;130321;1268;96630;-75
2022/03/15 12:58:09;;;;;;;16.60;12.70;;;;;;;11.48;57.28;101330.61;130332;1268;97325;-75
2022/03/15 13:01:14;;;;;;;14.20;11.60;;;;;;;11.36;57.14;101328.78;130361;1268;96638;-75
2022/03/15 13:04:21;;;;;;;22.40;15.90;;;;;;;11.36;57.84;101320.77;130333;1268;97440;-75
2022/03/15 13:07:30;;;;;;;18.70;14.20;;;;;;;11.42;57.61;101314.06;130310;1268;97317;-75
2022/03/15 13:10:38;;;;;;;16.30;12.70;;;;;;;11.46;57.66;101309.84;130372;1268;96621;-76
2022/03/15 13:13:47;;;;;;;15.60;12.90;;;;;;;11.48;57.70;101308.69;130262;1266;97379;-76
2022/03/15 13:16:53;;;;;;;16.10;12.70;;;;;;;11.48;57.46;101306.38;130214;1267;96735;-76
2022/03/15 13:20:00;;;;;;;16.30;12.40;;;;;;;11.43;57.66;101306.34;130275;1268;97414;-76
2022/03/15 13:23:08;;;;;;;20.20;14.50;;;;;;;11.35;57.67;101305.73;130270;1268;96635;-78
2022/03/15 13:26:15;;;;;;;17.60;14.30;;;;;;;11.32;57.56;101306.86;130277;1268;96636;-76
2022/03/15 13:29:23;;;;;;;17.40;13.80;;;;;;;11.33;57.84;101303.12;130252;1268;96971;-74
2022/03/15 13:32:29;;;;;;;17.60;13.20;;;;;;;11.39;57.78;101297.02;130279;1268;97818;-76
2022/03/15 13:35:35;;;;;;;16.60;13.40;;;;;;;11.47;57.55;101290.63;130299;1268;97324;-77
2022/03/15 13:38:46;;;;;;;20.50;16.90;;;;;;;11.52;57.36;101289.28;130284;1268;96625;-76
2022/03/15 13:41:53;;;;;;;17.50;13.70;;;;;;;11.55;57.76;101288.10;130316;1268;97431;-74
2022/03/15 13:44:59;;;;;;;19.10;16.20;;;;;;;11.59;57.53;101288.88;130354;1268;96714;-75
2022/03/15 13:48:05;;;;;;;25.20;20.70;;;;;;;11.53;57.15;101293.48;130493;1268;96620;-75
2022/03/15 13:51:12;;;;;;;16.40;13.60;;;;;;;11.48;57.26;101290.74;130331;1268;96699;-77
2022/03/15 13:54:21;;;;;;;16.20;12.80;;;;;;;11.51;57.76;101287.04;130524;1268;96641;-73
2022/03/15 13:57:30;;;;;;;15.70;12.70;;;;;;;11.53;57.41;101288.86;130319;1268;97811;-74
2022/03/15 14:00:35;;;;;;;19.50;16.00;;;;;;;11.47;57.72;101289.90;130324;1268;96630;-73
2022/03/15 14:03:41;;;;;;;22.70;17.60;;;;;;;11.41;57.31;101286.70;130292;1268;97022;-76
2022/03/15 14:06:48;;;;;;;21.50;16.50;;;;;;;11.38;57.78;101283.95;130365;1268;96654;-77
2022/03/15 14:10:02;;;;;;;17.90;14.00;;;;;;;11.36;57.82;101281.21;130483;1268;96646;-74
2022/03/15 14:13:17;;;;;;;17.20;13.30;;;;;;;11.37;57.90;101275.07;130462;1267;97697;-74
2022/03/15 14:16:32;;;;;;;16.00;13.20;;;;;;;11.34;57.68;101275.31;130287;1268;97835;-75
2022/03/15 14:19:50;;;;;;;16.50;12.70;;;;;;;11.34;58.08;101270.67;130305;1268;97826;-74
2022/03/15 14:22:57;;;;;;;19.40;13.90;;;;;;;11.37;57.64;101267.95;130608;1267;97949;-75
2022/03/15 14:26:04;;;;;;;22.50;17.20;;;;;;;11.38;57.68;101260.55;130406;1267;97666;-74
2022/03/15 14:29:19;;;;;;;21.80;15.30;;;;;;;11.36;57.64;101257.36;130320;1267;96655;-74
2022/03/15 14:32:26;;;;;;;18.30;13.50;;;;;;;11.35;57.95;101254.28;130376;1267;97713;-76
2022/03/15 14:35:35;;;;;;;17.00;13.20;;;;;;;11.30;57.68;101251.61;130486;1267;97335;-73
2022/03/15 14:38:42;;;;;;;19.90;14.10;;;;;;;11.24;57.62;101249.69;130696;1267;96699;-75
2022/03/15 14:41:48;;;;;;;18.50;14.00;;;;;;;11.18;58.04;101249.33;130546;1267;96642;-73
2022/03/15 14:44:54;;;;;;;18.90;14.20;;;;;;;11.13;57.80;101245.16;130543;1267;97424;-76
2022/03/15 14:48:00;;;;;;;15.80;12.80;;;;;;;11.13;57.70;101242.61;130619;1268;97392;-74
2022/03/15 14:51:06;;;;;;;18.50;14.20;;;;;;;11.19;57.49;101237.13;130437;1267;96622;-74
2022/03/15 14:54:11;;;;;;;18.20;14.20;;;;;;;11.21;57.78;101230.54;130444;1267;96627;-76
2022/03/15 14:57:20;;;;;;;20.60;14.00;;;;;;;11.19;57.90;101228.70;130619;1267;97812;-73
2022/03/15 15:00:26;;;;;;;17.80;14.20;;;;;;;11.12;57.87;101228.13;130460;1267;96604;-74
2022/03/15 15:03:34;;;;;;;18.00;13.90;;;;;;;11.07;57.79;101229.45;130403;1267;96670;-75
2022/03/15 15:06:42;;;;;;;17.80;13.50;;;;;;;11.05;57.96;101229.21;130531;1267;96639;-73
2022/03/15 15:09:48;;;;;;;19.30;14.50;;;;;;;10.97;58.02;101222.95;130290;1267;97834;-73
2022/03/15 15:12:53;;;;;;;20.40;14.20;;;;;;;10.93;58.26;101221.00;130359;1267;97871;-73
2022/03/15 15:15:59;;;;;;;18.40;13.60;;;;;;;10.89;58.03;101222.04;130420;1268;97548;-71
2022/03/15 15:19:04;;;;;;;17.60;13.20;;;;;;;10.82;57.94;101225.67;130369;1267;96677;-73
2022/03/15 15:22:11;;;;;;;18.40;13.70;;;;;;;10.74;57.94;101222.98;130497;1267;96642;-71
2022/03/15 15:25:17;;;;;;;21.60;15.00;;;;;;;10.66;58.18;101220.11;130501;1267;97408;-74
2022/03/15 15:28:28;;;;;;;21.90;15.00;;;;;;;10.61;58.13;101216.02;130497;1267;97695;-71
2022/03/15 15:31:34;;;;;;;20.00;15.00;;;;;;;10.60;57.85;101212.95;130345;1266;97694;-73
2022/03/15 15:34:39;;;;;;;20.30;14.30;;;;;;;10.59;58.05;101214.23;130304;1267;96645;-73
2022/03/15 15:37:50;;;;;;;19.70;14.30;;;;;;;10.59;57.94;101215.30;130414;1267;97865;-75
2022/03/15 15:40:56;;;;;;;17.30;13.90;;;;;;;10.56;58.39;101216.16;130194;1267;96702;-76
2022/03/15 15:44:03;;;;;;;18.20;13.40;;;;;;;10.50;58.24;101212.17;130371;1267;96613;-77
2022/03/15 15:47:08;;;;;;;19.10;13.30;;;;;;;10.44;58.25;101202.77;130302;1266;96661;-74
2022/03/15 15:50:15;;;;;;;19.00;13.70;;;;;;;10.37;58.30;101202.95;130295;1267;96738;-74
2022/03/15 15:53:23;;;;;;;19.10;13.50;;;;;;;10.30;58.61;101202.66;131068;1266;96614;-71
2022/03/15 15:56:30;;;;;;;17.90;13.20;;;;;;;10.23;58.66;101198.96;130883;1268;97402;-75
2022/03/15 15:59:38;;;;;;;18.20;13.40;;;;;;;10.15;58.57;101195.18;130551;1267;96979;-76
2022/03/15 16:02:52;;;;;;;30.40;18.00;;;;;;;10.06;58.53;101197.33;130516;1267;96921;-74
2022/03/15 16:05:58;;;;;;;26.10;16.50;;;;;;;9.98;58.43;101195.67;130436;1267;97440;-75
2022/03/15 16:09:03;;;;;;;19.90;14.40;;;;;;;9.90;58.80;101193.88;130498;1267;97815;-77
2022/03/15 16:12:10;;;;;;;22.50;14.60;;;;;;;9.79;58.84;101193.62;130461;1267;96635;-76
2022/03/15 16:15:17;;;;;;;28.90;17.90;;;;;;;9.72;58.94;101196.52;130506;1266;96854;-76
2022/03/15 16:18:22;;;;;;;27.20;16.50;;;;;;;9.67;58.98;101194.95;130451;1266;96611;-75
2022/03/15 16:21:28;;;;;;;26.40;17.30;;;;;;;9.63;58.90;101191.38;130427;1266;97810;-74
2022/03/15 16:24:34;;;;;;;24.80;16.70;;;;;;;9.58;58.93;101189.84;130613;1266;96648;-75
2022/03/15 16:27:40;;;;;;;30.40;20.60;;;;;;;9.50;59.05;101189.61;130410;1267;97317;-74
2022/03/15 16:30:46;;;;;;;33.50;21.60;;;;;;;9.41;59.17;101197.57;130470;1267;97376;-75
2022/03/15 16:33:51;;;;;;;34.50;20.60;;;;;;;9.37;59.20;101196.88;130269;1268;97805;-75
2022/03/15 16:36:58;;;;;;;57.30;34.30;;;;;;;9.31;59.30;101196.11;130309;1268;97516;-75
2022/03/15 16:40:06;;;;;;;63.40;37.20;;;;;;;9.24;59.42;101196.80;130443;1268;97825;-75
2022/03/15 16:43:11;;;;;;;55.70;32.70;;;;;;;9.18;59.48;101195.50;130408;1268;96699;-75
2022/03/15 16:46:17;;;;;;;46.10;27.70;;;;;;;9.13;59.55;101192.55;130326;1268;97408;-75
2022/03/15 16:49:22;;;;;;;40.60;25.30;;;;;;;9.06;59.55;101195.39;130269;1268;97338;-74
2022/03/15 16:52:30;;;;;;;41.20;26.90;;;;;;;8.98;59.72;101193.70;130353;1267;96722;-76
2022/03/15 16:55:36;;;;;;;41.00;24.30;;;;;;;8.88;59.86;101196.05;130538;1266;97701;-73
2022/03/15 17:02:08;;;;;;;30.00;19.50;;;;;;;8.69;59.97;101182.48;130498;1267;97795;-77
2022/03/15 17:08:38;;;;;;;33.70;20.00;;;;;;;8.48;60.24;101181.02;130672;1267;96617;-75
2022/03/15 17:11:43;;;;;;;96.80;47.00;;;;;;;8.39;60.19;101176.40;130373;1268;96673;-72
2022/03/15 17:14:51;;;;;;;264.50;116.50;;;;;;;8.28;60.33;101178.80;130267;1267;96648;-75
2022/03/15 17:17:58;;;;;;;109.10;50.70;;;;;;;8.18;60.36;101177.54;130259;1268;97815;-72
2022/03/15 17:21:05;;;;;;;68.00;36.80;;;;;;;8.10;60.41;101173.26;130313;1268;98752;-73
2022/03/15 17:24:11;;;;;;;54.90;32.70;;;;;;;8.02;60.21;101168.86;130258;1268;98085;-74
2022/03/15 17:27:17;;;;;;;40.70;25.30;;;;;;;7.94;60.49;101163.28;130323;1268;97986;-72
2022/03/15 17:30:22;;;;;;;37.30;23.10;;;;;;;7.84;60.44;101159.71;130363;1268;99149;-72
2022/03/15 17:33:30;;;;;;;50.80;23.70;;;;;;;7.78;60.42;101156.95;130263;1268;98062;-72
2022/03/15 17:36:36;;;;;;;46.60;22.10;;;;;;;7.72;60.45;101150.52;130248;1268;98002;-74
2022/03/15 17:39:42;;;;;;;60.20;24.20;;;;;;;7.66;60.52;101144.20;130267;1268;98785;-74
2022/03/15 17:42:50;;;;;;;73.20;46.50;;;;;;;7.59;60.59;101140.85;130270;1268;98054;-74